createdAt,value
2017-05-17T00:00:52.678Z,74.96
2017-05-17T00:01:52.666Z,74.68
2017-05-17T00:02:52.655Z,74.96
2017-05-17T00:03:52.648Z,74.3
2017-05-17T00:04:52.630Z,74.3
2017-05-17T00:05:52.622Z,74.3
2017-05-17T00:06:52.607Z,74.49
2017-05-17T00:07:52.595Z,74.11
2017-05-17T00:08:52.584Z,73.82
2017-05-17T00:09:52.574Z,74.01
2017-05-17T00:10:52.564Z,74.11
2017-05-17T00:11:52.552Z,73.35
2017-05-17T00:12:52.536Z,73.72
2017-05-17T00:13:52.528Z,73.54
2017-05-17T00:14:52.211Z,73.44
2017-05-17T00:15:52.501Z,73.25
2017-05-17T00:16:52.489Z,73.07
2017-05-17T00:17:52.479Z,73.44
2017-05-17T00:18:52.469Z,72.78
2017-05-17T00:19:52.454Z,72.49
2017-05-17T00:21:06.081Z,72.68
2017-05-17T00:21:52.434Z,72.4
2017-05-17T00:22:52.418Z,72.49
2017-05-17T00:23:52.413Z,72.4
2017-05-17T00:24:52.398Z,71.92
2017-05-17T00:25:52.600Z,72.3
2017-05-17T00:27:06.017Z,71.83
2017-05-17T00:27:52.362Z,71.73
2017-05-17T00:28:52.357Z,72.02
2017-05-17T00:29:52.340Z,71.73
2017-05-17T00:30:52.324Z,71.64
2017-05-17T00:31:52.316Z,71.92
2017-05-17T00:32:52.304Z,71.45
2017-05-17T00:33:52.290Z,71.64
2017-05-17T00:34:52.283Z,71.55
2017-05-17T00:35:52.268Z,70.69
2017-05-17T00:36:52.258Z,71.45
2017-05-17T00:37:52.258Z,70.98
2017-05-17T00:38:52.238Z,70.88
2017-05-17T00:39:52.222Z,70.69
2017-05-17T00:40:52.211Z,70.59
2017-05-17T00:41:52.200Z,71.17
2017-05-17T00:42:52.186Z,71.17
2017-05-17T00:43:52.239Z,70.78
2017-05-17T00:44:52.164Z,70.78
2017-05-17T00:45:52.150Z,70.59
2017-05-17T00:46:52.140Z,70.78
2017-05-17T00:47:52.129Z,70.31
2017-05-17T00:48:52.117Z,70.4
2017-05-17T00:49:52.104Z,70.31
2017-05-17T00:50:52.090Z,70.12
2017-05-17T00:51:52.081Z,69.84
2017-05-17T00:52:52.068Z,70.03
2017-05-17T00:53:51.753Z,69.74
2017-05-17T00:54:52.097Z,69.46
2017-05-17T00:55:52.032Z,69.36
2017-05-17T00:56:52.022Z,69.27
2017-05-17T00:57:52.012Z,69.46
2017-05-17T00:58:51.995Z,69.17
2017-05-17T00:59:51.984Z,68.89
2017-05-17T01:00:51.976Z,68.98
2017-05-17T01:01:51.963Z,68.41
2017-05-17T01:02:51.951Z,68.32
2017-05-17T01:03:51.939Z,68.13
2017-05-17T01:04:51.924Z,68.51
2017-05-17T01:05:51.963Z,68.23
2017-05-17T01:06:51.905Z,68.13
2017-05-17T01:07:51.894Z,68.04
2017-05-17T01:08:51.882Z,68.04
2017-05-17T01:09:51.870Z,67.65
2017-05-17T01:10:51.858Z,67.75
2017-05-17T01:11:51.842Z,67.37
2017-05-17T01:12:51.832Z,67.18
2017-05-17T01:13:51.824Z,67.46
2017-05-17T01:14:51.810Z,67.18
2017-05-17T01:15:51.797Z,67.08
2017-05-17T01:16:51.788Z,66.61
2017-05-17T01:17:51.780Z,66.99
2017-05-17T01:18:51.767Z,66.61
2017-05-17T01:19:51.754Z,66.42
2017-05-17T01:20:51.751Z,66.33
2017-05-17T01:21:51.730Z,66.33
2017-05-17T01:22:51.723Z,66.61
2017-05-17T01:23:51.711Z,66.42
2017-05-17T01:24:51.701Z,66.04
2017-05-17T01:25:51.691Z,65.85
2017-05-17T01:26:51.677Z,66.23
2017-05-17T01:27:51.672Z,66.04
2017-05-17T01:28:51.659Z,65.95
2017-05-17T01:29:51.643Z,65.75
2017-05-17T01:30:51.679Z,65.66
2017-05-17T01:31:51.624Z,66.14
2017-05-17T01:32:51.613Z,65.56
2017-05-17T01:33:51.607Z,65.37
2017-05-17T01:34:51.590Z,65.66
2017-05-17T01:35:51.583Z,65.75
2017-05-17T01:36:51.571Z,65.28
2017-05-17T01:37:51.561Z,65.28
2017-05-17T01:38:51.551Z,65.37
2017-05-17T01:39:51.538Z,65.56
2017-05-17T01:40:51.544Z,65.09
2017-05-17T01:41:51.518Z,64.9
2017-05-17T01:42:51.510Z,64.9
2017-05-17T01:43:51.498Z,64.81
2017-05-17T01:44:51.489Z,64.71
2017-05-17T01:45:51.475Z,65.09
2017-05-17T01:46:51.469Z,64.62
2017-05-17T01:47:51.459Z,64.71
2017-05-17T01:48:51.459Z,64.52
2017-05-17T01:49:51.434Z,64.71
2017-05-17T01:50:51.427Z,64.52
2017-05-17T01:51:51.414Z,64.14
2017-05-17T01:52:51.408Z,64.24
2017-05-17T01:53:51.395Z,64.43
2017-05-17T01:54:51.386Z,64.33
2017-05-17T01:55:51.372Z,64.52
2017-05-17T01:56:51.359Z,63.95
2017-05-17T01:57:51.353Z,63.86
2017-05-17T01:58:51.339Z,63.95
2017-05-17T01:59:51.334Z,64.05
2017-05-17T02:00:51.318Z,63.86
2017-05-17T02:01:51.305Z,63.67
2017-05-17T02:02:51.299Z,63.76
2017-05-17T02:03:51.285Z,63.67
2017-05-17T02:04:51.278Z,63.48
2017-05-17T02:05:51.264Z,63.39
2017-05-17T02:06:51.253Z,63.48
2017-05-17T02:07:51.245Z,63.48
2017-05-17T02:08:51.235Z,63.39
2017-05-17T02:09:51.221Z,63.01
2017-05-17T02:10:51.215Z,62.91
2017-05-17T02:11:51.200Z,63.2
2017-05-17T02:12:51.193Z,63.2
2017-05-17T02:13:51.180Z,63.29
2017-05-17T02:14:51.169Z,63.1
2017-05-17T02:15:51.165Z,63.39
2017-05-17T02:16:51.147Z,63.01
2017-05-17T02:17:51.137Z,63.01
2017-05-17T02:18:51.125Z,63.29
2017-05-17T02:19:51.114Z,63.2
2017-05-17T02:20:51.105Z,63.29
2017-05-17T02:21:51.093Z,62.82
2017-05-17T02:22:51.085Z,63.57
2017-05-17T02:23:51.071Z,63.48
2017-05-17T02:24:51.062Z,63.57
2017-05-17T02:25:51.053Z,63.01
2017-05-17T02:26:51.039Z,63.48
2017-05-17T02:27:51.032Z,63.76
2017-05-17T02:28:51.018Z,63.98
2017-05-17T02:29:51.008Z,63.89
2017-05-17T02:30:50.998Z,64.27
2017-05-17T02:31:50.986Z,64.75
2017-05-17T02:32:50.975Z,64.9
2017-05-17T02:33:50.965Z,65.37
2017-05-17T02:34:50.955Z,65.47
2017-05-17T02:35:50.942Z,65.37
2017-05-17T02:36:50.983Z,65.85
2017-05-17T02:37:50.926Z,65.95
2017-05-17T02:38:50.915Z,66.14
2017-05-17T02:39:50.900Z,66.33
2017-05-17T02:40:50.895Z,66.33
2017-05-17T02:41:50.883Z,66.89
2017-05-17T02:42:50.870Z,67.27
2017-05-17T02:43:50.861Z,67.18
2017-05-17T02:44:50.851Z,67.94
2017-05-17T02:45:50.841Z,68.41
2017-05-17T02:46:50.827Z,68.41
2017-05-17T02:47:50.520Z,68.89
2017-05-17T02:48:50.812Z,69.27
2017-05-17T02:49:50.797Z,69.36
2017-05-17T02:50:50.789Z,69.84
2017-05-17T02:51:50.777Z,70.21
2017-05-17T02:52:50.778Z,70.31
2017-05-17T02:53:50.456Z,71.36
2017-05-17T02:54:50.748Z,71.55
2017-05-17T02:55:50.737Z,71.96
2017-05-17T02:56:50.725Z,72.06
2017-05-17T02:57:50.719Z,72.25
2017-05-17T02:58:50.707Z,72.72
2017-05-17T02:59:50.705Z,72.25
2017-05-17T03:00:50.687Z,72.63
2017-05-17T03:01:50.677Z,72.53
2017-05-17T03:02:50.665Z,72.81
2017-05-17T03:03:50.654Z,73
2017-05-17T03:04:50.645Z,73.38
2017-05-17T03:05:50.632Z,73.48
2017-05-17T03:06:50.631Z,73.57
2017-05-17T03:07:50.611Z,73.57
2017-05-17T03:08:50.602Z,73.57
2017-05-17T03:09:50.591Z,73.67
2017-05-17T03:10:50.579Z,74.24
2017-05-17T03:11:50.571Z,73.86
2017-05-17T03:12:50.559Z,74.43
2017-05-17T03:13:50.247Z,74.33
2017-05-17T03:14:50.542Z,75.09
2017-05-17T03:15:50.527Z,74.71
2017-05-17T03:16:50.520Z,74.77
2017-05-17T03:17:50.510Z,75.53
2017-05-17T03:18:50.496Z,75.53
2017-05-17T03:19:50.490Z,75.34
2017-05-17T03:20:50.477Z,75.81
2017-05-17T03:21:50.467Z,76.23
2017-05-17T03:22:50.459Z,76.14
2017-05-17T03:23:50.450Z,76.61
2017-05-17T03:24:50.439Z,76.8
2017-05-17T03:25:50.468Z,77.18
2017-05-17T03:26:50.416Z,76.8
2017-05-17T03:27:50.404Z,76.99
2017-05-17T03:28:50.464Z,77.37
2017-05-17T03:29:50.386Z,77.66
2017-05-17T03:30:50.374Z,77.84
2017-05-17T03:31:50.361Z,78.13
2017-05-17T03:32:50.356Z,77.84
2017-05-17T03:33:50.345Z,78.23
2017-05-17T03:34:50.333Z,78.32
2017-05-17T03:35:50.322Z,78.42
2017-05-17T03:36:50.313Z,78.61
2017-05-17T03:37:50.302Z,78.89
2017-05-17T03:38:50.292Z,78.89
2017-05-17T03:39:50.282Z,79.08
2017-05-17T03:40:50.272Z,79.17
2017-05-17T03:41:50.265Z,79.08
2017-05-17T03:42:50.253Z,78.95
2017-05-17T03:43:50.244Z,79.23
2017-05-17T03:44:50.230Z,79.52
2017-05-17T03:45:50.221Z,79.52
2017-05-17T03:46:50.212Z,79.61
2017-05-17T03:47:50.203Z,79.33
2017-05-17T03:48:50.194Z,79.65
2017-05-17T03:49:50.183Z,79.65
2017-05-17T03:50:50.174Z,79.84
2017-05-17T03:51:50.163Z,80.13
2017-05-17T03:52:50.151Z,80.03
2017-05-17T03:53:50.148Z,80.13
2017-05-17T03:54:50.132Z,80.41
2017-05-17T03:55:50.126Z,80.32
2017-05-17T03:56:50.115Z,80.03
2017-05-17T03:57:50.103Z,80.22
2017-05-17T03:58:50.094Z,80.69
2017-05-17T03:59:50.082Z,80.41
2017-05-17T04:00:50.073Z,80.41
2017-05-17T04:01:50.060Z,80.41
2017-05-17T04:02:50.061Z,80.79
2017-05-17T04:03:50.040Z,80.79
2017-05-17T04:04:50.030Z,80.88
2017-05-17T04:05:50.021Z,81.07
2017-05-17T04:06:50.011Z,80.88
2017-05-17T04:07:49.999Z,81.17
2017-05-17T04:08:49.990Z,81.26
2017-05-17T04:09:49.981Z,81.26
2017-05-17T04:10:49.966Z,81.55
2017-05-17T04:11:49.956Z,81.36
2017-05-17T04:12:49.644Z,81.45
2017-05-17T04:13:49.998Z,81.55
2017-05-17T04:14:49.927Z,81.65
2017-05-17T04:15:49.914Z,81.65
2017-05-17T04:16:49.902Z,81.93
2017-05-17T04:17:49.893Z,81.36
2017-05-17T04:18:49.888Z,81.36
2017-05-17T04:19:49.873Z,81.55
2017-05-17T04:20:49.861Z,81.84
2017-05-17T04:21:49.858Z,81.55
2017-05-17T04:22:49.842Z,81.55
2017-05-17T04:23:49.829Z,82.03
2017-05-17T04:24:49.821Z,81.74
2017-05-17T04:25:49.807Z,81.84
2017-05-17T04:26:49.800Z,81.84
2017-05-17T04:27:49.785Z,82.21
2017-05-17T04:28:49.776Z,82.12
2017-05-17T04:29:49.768Z,82.31
2017-05-17T04:30:49.753Z,82.21
2017-05-17T04:31:49.743Z,82.31
2017-05-17T04:32:49.736Z,82.31
2017-05-17T04:33:49.725Z,82.31
2017-05-17T04:34:49.714Z,82.21
2017-05-17T04:35:49.702Z,82.12
2017-05-17T04:36:49.695Z,82.5
2017-05-17T04:37:49.683Z,83.11
2017-05-17T04:38:49.673Z,82.92
2017-05-17T04:39:49.662Z,82.87
2017-05-17T04:40:49.651Z,82.96
2017-05-17T04:41:49.644Z,82.81
2017-05-17T04:42:49.632Z,83.1
2017-05-17T04:43:49.618Z,82.86
2017-05-17T04:44:49.617Z,83.33
2017-05-17T04:45:49.601Z,82.67
2017-05-17T04:46:49.591Z,82.19
2017-05-17T04:47:49.584Z,82.57
2017-05-17T04:48:49.575Z,82.57
2017-05-17T04:49:49.563Z,82.48
2017-05-17T04:50:49.553Z,82.48
2017-05-17T04:51:49.547Z,82.09
2017-05-17T04:52:49.534Z,82.38
2017-05-17T04:53:49.523Z,82.38
2017-05-17T04:54:49.527Z,81.9
2017-05-17T04:55:49.508Z,82.04
2017-05-17T04:56:49.498Z,82.14
2017-05-17T04:57:49.488Z,81.85
2017-05-17T04:58:49.479Z,81.95
2017-05-17T04:59:49.470Z,81.56
2017-05-17T05:00:49.459Z,81.85
2017-05-17T05:01:49.448Z,81.95
2017-05-17T05:02:49.443Z,82.04
2017-05-17T05:03:49.131Z,81.66
2017-05-17T05:04:49.424Z,81.76
2017-05-17T05:05:49.414Z,81.47
2017-05-17T05:06:49.404Z,81.33
2017-05-17T05:07:49.392Z,81.43
2017-05-17T05:08:49.385Z,81.37
2017-05-17T05:09:49.382Z,81.56
2017-05-17T05:10:49.365Z,81.56
2017-05-17T05:11:49.361Z,81.56
2017-05-17T05:12:49.349Z,81.76
2017-05-17T05:13:49.337Z,81.51
2017-05-17T05:14:49.330Z,81.6
2017-05-17T05:15:49.322Z,81.51
2017-05-17T05:16:49.312Z,81.7
2017-05-17T05:17:49.305Z,81.6
2017-05-17T05:18:49.295Z,81.36
2017-05-17T05:19:49.290Z,81.36
2017-05-17T05:20:49.278Z,81.07
2017-05-17T05:21:49.272Z,81.13
2017-05-17T05:22:49.260Z,81.23
2017-05-17T05:23:49.252Z,81.32
2017-05-17T05:24:49.243Z,80.75
2017-05-17T05:25:49.235Z,80.94
2017-05-17T05:26:49.228Z,81.41
2017-05-17T05:27:49.226Z,81.36
2017-05-17T05:28:49.210Z,81.65
2017-05-17T05:29:49.203Z,81.68
2017-05-17T05:30:49.198Z,81.82
2017-05-17T05:31:49.190Z,81.96
2017-05-17T05:32:49.178Z,81.58
2017-05-17T05:33:49.173Z,81.43
2017-05-17T05:34:49.221Z,81.62
2017-05-17T05:35:49.152Z,81.29
2017-05-17T05:36:49.148Z,81.48
2017-05-17T05:37:49.141Z,81.25
2017-05-17T05:38:49.134Z,81.38
2017-05-17T05:39:49.125Z,81.01
2017-05-17T05:40:49.168Z,81.1
2017-05-17T05:41:49.110Z,80.95
2017-05-17T05:42:49.104Z,80.66
2017-05-17T05:43:49.097Z,80.85
2017-05-17T05:44:49.088Z,80.57
2017-05-17T05:45:49.080Z,80.66
2017-05-17T05:46:49.075Z,80.57
2017-05-17T05:47:49.070Z,80.13
2017-05-17T05:48:49.060Z,80.09
2017-05-17T05:49:49.053Z,79.67
2017-05-17T05:50:49.049Z,79.96
2017-05-17T05:51:49.045Z,79.86
2017-05-17T05:52:49.034Z,80.05
2017-05-17T05:53:49.028Z,79.48
2017-05-17T05:54:49.020Z,79.57
2017-05-17T05:55:49.019Z,79.57
2017-05-17T05:56:49.007Z,79.52
2017-05-17T05:57:49.001Z,79.52
2017-05-17T05:58:48.994Z,79.52
2017-05-17T05:59:48.984Z,79.65
2017-05-17T06:00:48.981Z,79.27
2017-05-17T06:01:48.973Z,79.36
2017-05-17T06:02:48.972Z,78.83
2017-05-17T06:03:48.958Z,79.08
2017-05-17T06:04:48.953Z,79.02
2017-05-17T06:05:48.949Z,78.74
2017-05-17T06:06:48.953Z,78.39
2017-05-17T06:07:48.939Z,78.43
2017-05-17T06:08:48.937Z,78.43
2017-05-17T06:09:48.926Z,77.9
2017-05-17T06:10:48.921Z,78.09
2017-05-17T06:11:48.918Z,78.09
2017-05-17T06:12:48.909Z,77.99
2017-05-17T06:13:48.908Z,77.42
2017-05-17T06:14:48.893Z,77.33
2017-05-17T06:15:48.893Z,77.51
2017-05-17T06:16:48.883Z,77.23
2017-05-17T06:17:48.577Z,77.04
2017-05-17T06:18:48.876Z,77.13
2017-05-17T06:19:48.871Z,76.94
2017-05-17T06:20:48.865Z,76.94
2017-05-17T06:21:48.861Z,76.65
2017-05-17T06:22:48.855Z,76.37
2017-05-17T06:28:34.866Z,76.31
2017-05-17T06:29:35.160Z,75.83
2017-05-17T06:30:34.853Z,75.93
2017-05-17T06:31:35.148Z,76.06
2017-05-17T06:32:35.150Z,75.43
2017-05-17T06:33:34.840Z,75.52
2017-05-17T06:34:35.139Z,75.79
2017-05-17T06:35:34.830Z,75.12
2017-05-17T06:36:34.824Z,75.25
2017-05-17T06:41:22.724Z,74.27
2017-05-17T06:42:08.106Z,74.21
2017-05-17T06:43:08.107Z,73.88
2017-05-17T06:44:08.097Z,73.24
2017-05-17T06:45:08.095Z,73.49
2017-05-17T06:46:08.094Z,73.16
2017-05-17T06:47:08.091Z,73.13
2017-05-17T06:48:08.086Z,73.41
2017-05-17T06:49:07.782Z,73.07
2017-05-17T06:50:07.775Z,73.3
2017-05-17T06:51:08.076Z,73.1
2017-05-17T06:52:08.076Z,72.81
2017-05-17T06:53:08.067Z,72.72
2017-05-17T06:54:08.066Z,72.53
2017-05-17T06:55:08.065Z,72.43
2017-05-17T06:56:08.059Z,72.63
2017-05-17T06:57:08.057Z,72.18
2017-05-17T06:58:08.052Z,72.47
2017-05-17T06:59:08.052Z,72.37
2017-05-17T07:04:54.371Z,71.48
2017-05-17T07:05:54.368Z,71.48
2017-05-17T07:06:54.366Z,72.06
2017-05-17T07:07:54.361Z,71.87
2017-05-17T07:08:54.354Z,71.67
2017-05-17T07:09:54.353Z,71.48
2017-05-17T07:10:54.361Z,71.35
2017-05-17T07:11:54.348Z,71.39
2017-05-17T07:12:54.393Z,71.48
2017-05-17T07:13:54.342Z,71.29
2017-05-17T07:14:54.338Z,71.48
2017-05-17T07:15:54.044Z,71.39
2017-05-17T07:16:54.337Z,71.58
2017-05-17T07:17:54.343Z,71.58
2017-05-17T07:18:54.328Z,71.19
2017-05-17T07:19:54.336Z,71.1
2017-05-17T07:20:54.334Z,71.19
2017-05-17T07:21:54.323Z,70.94
2017-05-17T07:22:54.324Z,71.33
2017-05-17T07:23:54.315Z,70.75
2017-05-17T07:24:54.310Z,70.65
2017-05-17T07:25:54.305Z,70.62
2017-05-17T07:26:54.303Z,70.52
2017-05-17T07:27:54.303Z,70.72
2017-05-17T07:28:54.299Z,70.52
2017-05-17T07:29:54.296Z,70.43
2017-05-17T07:30:54.291Z,70.81
2017-05-17T07:31:54.303Z,70.62
2017-05-17T07:32:54.302Z,70.62
2017-05-17T07:33:54.284Z,70.04
2017-05-17T07:34:54.279Z,70.43
2017-05-17T07:35:54.276Z,70.33
2017-05-17T07:36:54.275Z,70.33
2017-05-17T07:37:54.274Z,70.33
2017-05-17T07:38:54.275Z,70.2
2017-05-17T07:39:54.282Z,70.37
2017-05-17T07:40:54.265Z,70.07
2017-05-17T07:41:54.261Z,70.07
2017-05-17T07:42:54.258Z,70.27
2017-05-17T07:43:54.264Z,70.27
2017-05-17T07:44:54.255Z,70.21
2017-05-17T07:45:54.251Z,70.11
2017-05-17T07:46:54.249Z,69.92
2017-05-17T07:47:54.248Z,69.85
2017-05-17T07:48:54.243Z,69.89
2017-05-17T07:49:54.241Z,69.35
2017-05-17T07:50:54.239Z,69.41
2017-05-17T07:51:54.249Z,69.31
2017-05-17T07:52:54.235Z,69.47
2017-05-17T07:53:54.234Z,68.76
2017-05-17T07:54:54.234Z,68.66
2017-05-17T07:55:54.231Z,68.95
2017-05-17T07:56:54.235Z,68.98
2017-05-17T07:57:54.230Z,69.15
2017-05-17T07:58:54.228Z,69.18
2017-05-17T07:59:54.229Z,69.02
2017-05-17T08:00:54.228Z,68.61
2017-05-17T08:01:54.230Z,68.8
2017-05-17T08:02:54.225Z,68.22
2017-05-17T08:03:54.229Z,68.35
2017-05-17T08:04:54.221Z,68.02
2017-05-17T08:05:54.223Z,68.18
2017-05-17T08:06:54.220Z,68.37
2017-05-17T08:07:54.221Z,68.28
2017-05-17T08:08:54.230Z,68.08
2017-05-17T08:09:54.215Z,68.44
2017-05-17T08:10:54.226Z,68.41
2017-05-17T08:11:54.213Z,68.16
2017-05-17T08:12:54.220Z,68.48
2017-05-17T08:13:54.214Z,68.26
2017-05-17T08:14:54.210Z,68.04
2017-05-17T08:15:54.207Z,68.04
2017-05-17T08:16:54.204Z,67.46
2017-05-17T08:17:54.206Z,67.43
2017-05-17T08:18:54.205Z,67.62
2017-05-17T08:19:54.207Z,67.27
2017-05-17T08:20:54.215Z,66.91
2017-05-17T08:21:54.214Z,67.46
2017-05-17T08:22:54.247Z,67.04
2017-05-17T08:23:54.201Z,66.91
2017-05-17T08:24:54.203Z,66.62
2017-05-17T08:25:54.204Z,66.72
2017-05-17T08:26:54.202Z,66.49
2017-05-17T08:27:54.199Z,66.52
2017-05-17T08:28:54.194Z,66.72
2017-05-17T08:29:54.192Z,66.43
2017-05-17T08:30:54.192Z,66.56
2017-05-17T08:31:54.190Z,66.52
2017-05-17T08:32:54.217Z,66.33
2017-05-17T08:33:54.188Z,66.33
2017-05-17T08:34:54.188Z,66.43
2017-05-17T08:35:54.188Z,66.08
2017-05-17T08:36:54.184Z,65.85
2017-05-17T08:37:54.181Z,65.56
2017-05-17T08:38:54.182Z,65.85
2017-05-17T08:39:54.179Z,65.56
2017-05-17T08:40:54.177Z,66.04
2017-05-17T08:41:54.175Z,65.66
2017-05-17T08:42:53.873Z,65.78
2017-05-17T08:43:54.173Z,65.47
2017-05-17T08:44:54.173Z,65.66
2017-05-17T08:45:54.167Z,65.17
2017-05-17T08:46:54.166Z,65.27
2017-05-17T08:47:54.165Z,65.59
2017-05-17T08:48:54.164Z,65.63
2017-05-17T08:49:54.176Z,65.08
2017-05-17T08:50:54.177Z,65.01
2017-05-17T08:51:54.158Z,64.92
2017-05-17T08:52:54.155Z,64.95
2017-05-17T08:53:54.158Z,64.56
2017-05-17T08:54:54.172Z,64.56
2017-05-17T08:55:54.166Z,64.63
2017-05-17T08:56:54.164Z,64.63
2017-05-17T08:57:54.167Z,64.31
2017-05-17T08:58:54.163Z,64.01
2017-05-17T08:59:54.149Z,64.01
2017-05-17T09:00:54.146Z,63.7
2017-05-17T09:01:54.155Z,63.7
2017-05-17T09:02:54.146Z,63.7
2017-05-17T09:03:54.143Z,63.7
2017-05-17T09:04:54.157Z,63.89
2017-05-17T09:05:54.143Z,63.43
2017-05-17T09:06:54.138Z,63.56
2017-05-17T09:07:54.156Z,63.69
2017-05-17T09:08:54.139Z,63.11
2017-05-17T09:09:54.135Z,63.24
2017-05-17T09:10:53.834Z,62.95
2017-05-17T09:11:54.166Z,63.02
2017-05-17T09:12:54.150Z,62.63
2017-05-17T09:13:54.137Z,62.85
2017-05-17T09:14:54.163Z,62.56
2017-05-17T09:15:54.158Z,62.88
2017-05-17T09:16:54.158Z,61.98
2017-05-17T09:17:54.149Z,61.89
2017-05-17T09:18:54.155Z,61.89
2017-05-17T09:19:54.136Z,61.6
2017-05-17T09:20:54.146Z,61.22
2017-05-17T09:21:54.138Z,61.34
2017-05-17T09:22:54.140Z,61.15
2017-05-17T09:23:54.139Z,61.47
2017-05-17T09:24:54.139Z,61.33
2017-05-17T09:25:54.158Z,60.85
2017-05-17T09:26:54.152Z,60.85
2017-05-17T09:27:54.147Z,60.75
2017-05-17T09:28:54.150Z,60.4
2017-05-17T09:29:53.838Z,60.4
2017-05-17T09:30:54.154Z,60.33
2017-05-17T09:31:54.160Z,60.04
2017-05-17T09:32:54.156Z,60.17
2017-05-17T09:33:54.153Z,59.78
2017-05-17T09:34:54.153Z,59.69
2017-05-17T09:35:54.150Z,59.56
2017-05-17T09:36:54.147Z,59.36
2017-05-17T09:37:54.150Z,59.07
2017-05-17T09:38:54.146Z,58.69
2017-05-17T09:39:54.160Z,58.75
2017-05-17T09:40:54.147Z,58.21
2017-05-17T09:41:54.174Z,58.31
2017-05-17T09:42:54.151Z,58.4
2017-05-17T09:43:54.154Z,57.86
2017-05-17T09:44:54.152Z,57.37
2017-05-17T09:45:54.151Z,57.54
2017-05-17T09:46:54.155Z,57.44
2017-05-17T09:47:54.165Z,56.93
2017-05-17T09:48:54.168Z,56.46
2017-05-17T09:49:54.170Z,56.43
2017-05-17T09:50:54.156Z,56.52
2017-05-17T09:51:54.174Z,56.21
2017-05-17T09:52:54.161Z,56.49
2017-05-17T09:53:53.902Z,55.79
2017-05-17T09:54:54.166Z,56.57
2017-05-17T09:55:54.164Z,56.09
2017-05-17T09:56:54.163Z,55.31
2017-05-17T09:57:54.170Z,55.57
2017-05-17T09:58:54.166Z,55.43
2017-05-17T09:59:54.182Z,55.49
2017-05-17T10:00:54.169Z,55.88
2017-05-17T10:01:54.168Z,56.36
2017-05-17T10:02:54.176Z,56.41
2017-05-17T10:03:54.171Z,56.66
2017-05-17T10:04:53.870Z,56.4
2017-05-17T10:05:54.188Z,56.36
2017-05-17T10:06:53.875Z,56.56
2017-05-17T10:07:54.180Z,56.44
2017-05-17T10:08:54.189Z,56.44
2017-05-17T10:09:54.182Z,56.15
2017-05-17T10:10:54.185Z,56.47
2017-05-17T10:11:54.187Z,56.09
2017-05-17T10:12:54.202Z,56.21
2017-05-17T10:13:54.186Z,56.57
2017-05-17T10:14:54.208Z,56.03
2017-05-17T10:15:54.189Z,56.33
2017-05-17T10:16:54.216Z,56.23
2017-05-17T10:17:54.198Z,56.11
2017-05-17T10:18:54.196Z,56.59
2017-05-17T10:19:54.252Z,56.65
2017-05-17T10:20:54.200Z,57.18
2017-05-17T10:21:54.198Z,57.05
2017-05-17T10:22:54.214Z,56.98
2017-05-17T10:23:54.203Z,56.85
2017-05-17T10:24:54.206Z,57.17
2017-05-17T10:25:54.205Z,57.2
2017-05-17T10:26:54.204Z,56.74
2017-05-17T10:27:54.205Z,56.69
2017-05-17T10:28:54.207Z,56.76
2017-05-17T10:29:54.204Z,56.25
2017-05-17T10:30:54.209Z,56.38
2017-05-17T10:31:54.219Z,56.11
2017-05-17T10:32:53.907Z,56.31
2017-05-17T10:33:54.212Z,56.35
2017-05-17T10:34:54.225Z,56.67
2017-05-17T10:35:54.212Z,57.08
2017-05-17T10:36:54.220Z,57.3
2017-05-17T10:37:54.221Z,57.2
2017-05-17T10:38:54.211Z,57.07
2017-05-17T10:39:54.212Z,57.26
2017-05-17T10:40:54.218Z,57.7
2017-05-17T10:41:54.222Z,57.69
2017-05-17T10:42:54.220Z,57.37
2017-05-17T10:43:54.215Z,57.53
2017-05-17T10:44:54.215Z,57.4
2017-05-17T10:45:54.214Z,57.34
2017-05-17T10:46:54.217Z,57.43
2017-05-17T10:47:54.218Z,57.34
2017-05-17T10:48:54.220Z,57.39
2017-05-17T10:49:54.229Z,57.29
2017-05-17T10:50:54.221Z,57.37
2017-05-17T10:51:54.220Z,57.17
2017-05-17T10:52:54.218Z,57.2
2017-05-17T10:53:54.217Z,56.91
2017-05-17T10:54:54.286Z,57.14
2017-05-17T10:55:54.222Z,57.21
2017-05-17T10:56:54.223Z,56.85
2017-05-17T10:57:54.222Z,56.98
2017-05-17T10:58:54.218Z,56.76
2017-05-17T10:59:54.221Z,56.63
2017-05-17T11:00:54.271Z,56.51
2017-05-17T11:01:54.225Z,56.55
2017-05-17T11:02:54.223Z,57.07
2017-05-17T11:03:54.227Z,57.1
2017-05-17T11:04:54.234Z,57.32
2017-05-17T11:05:54.231Z,57.15
2017-05-17T11:06:54.263Z,56.98
2017-05-17T11:07:54.227Z,57.07
2017-05-17T11:08:54.226Z,57.4
2017-05-17T11:09:54.225Z,57.95
2017-05-17T11:10:54.236Z,58.17
2017-05-17T11:11:54.224Z,58.1
2017-05-17T11:12:54.227Z,57.9
2017-05-17T11:13:54.227Z,58
2017-05-17T11:14:54.221Z,58.1
2017-05-17T11:15:54.225Z,57.95
2017-05-17T11:16:53.920Z,58.56
2017-05-17T11:17:54.236Z,58.49
2017-05-17T11:18:54.230Z,58.78
2017-05-17T11:19:54.225Z,58.65
2017-05-17T11:20:53.921Z,58.79
2017-05-17T11:21:54.221Z,59.05
2017-05-17T11:22:54.223Z,59.3
2017-05-17T11:23:53.920Z,59.59
2017-05-17T11:24:53.916Z,60.03
2017-05-17T11:25:54.219Z,60.57
2017-05-17T11:26:54.217Z,60.09
2017-05-17T11:27:54.213Z,60.35
2017-05-17T11:28:54.213Z,60.72
2017-05-17T11:29:54.214Z,60.31
2017-05-17T11:30:54.211Z,59.9
2017-05-17T11:31:54.210Z,59.72
2017-05-17T11:32:54.213Z,60.1
2017-05-17T11:33:54.208Z,60.29
2017-05-17T11:34:54.208Z,59.97
2017-05-17T11:35:54.204Z,60.96
2017-05-17T11:36:54.197Z,60.61
2017-05-17T11:37:54.205Z,60.96
2017-05-17T11:38:54.198Z,60.96
2017-05-17T11:39:54.196Z,61.44
2017-05-17T11:40:54.202Z,61.98
2017-05-17T11:41:53.888Z,62.01
2017-05-17T11:42:54.184Z,62.26
2017-05-17T11:43:53.882Z,61.6
2017-05-17T11:44:54.183Z,61.47
2017-05-17T11:45:54.181Z,61.51
2017-05-17T11:46:54.177Z,62.01
2017-05-17T11:47:54.174Z,62.43
2017-05-17T11:48:54.169Z,62.3
2017-05-17T11:49:54.172Z,62.62
2017-05-17T11:50:54.174Z,62.46
2017-05-17T11:51:54.168Z,62.74
2017-05-17T11:52:54.171Z,62.96
2017-05-17T11:53:53.856Z,62.93
2017-05-17T11:54:53.853Z,62.71
2017-05-17T11:55:54.152Z,62.74
2017-05-17T11:56:54.152Z,62.38
2017-05-17T11:57:54.147Z,62.35
2017-05-17T11:58:54.145Z,62.26
2017-05-17T11:59:54.143Z,61.65
2017-05-17T12:00:54.154Z,61.75
2017-05-17T12:01:54.149Z,61.69
2017-05-17T12:02:54.141Z,61.63
2017-05-17T12:03:54.148Z,61.85
2017-05-17T12:04:53.832Z,62.37
2017-05-17T12:05:54.146Z,62.34
2017-05-17T12:06:54.124Z,62.91
2017-05-17T12:07:54.120Z,63.29
2017-05-17T12:08:53.819Z,63.45
2017-05-17T12:09:53.815Z,63.67
2017-05-17T12:10:53.811Z,63.73
2017-05-17T12:11:54.107Z,63.89
2017-05-17T12:12:54.114Z,64.12
2017-05-17T12:13:53.800Z,64.15
2017-05-17T12:14:54.110Z,64.15
2017-05-17T12:15:54.092Z,64.31
2017-05-17T12:16:54.093Z,64.02
2017-05-17T12:17:54.089Z,64.15
2017-05-17T12:18:53.785Z,64.18
2017-05-17T12:19:54.096Z,63.32
2017-05-17T12:20:54.093Z,63.32
2017-05-17T12:21:54.085Z,63.54
2017-05-17T12:22:54.087Z,62.99
2017-05-17T12:23:53.773Z,63.02
2017-05-17T12:24:54.072Z,62.54
2017-05-17T12:25:54.078Z,62.67
2017-05-17T12:26:54.080Z,62.7
2017-05-17T12:27:54.077Z,62.83
2017-05-17T12:28:54.130Z,62.12
2017-05-17T12:29:53.760Z,61.97
2017-05-17T12:30:54.065Z,61.84
2017-05-17T12:31:54.070Z,61.59
2017-05-17T12:32:54.066Z,62.17
2017-05-17T12:33:54.077Z,61.98
2017-05-17T12:34:54.058Z,61.66
2017-05-17T12:35:54.062Z,61.66
2017-05-17T12:36:54.057Z,62.01
2017-05-17T12:37:54.055Z,62.27
2017-05-17T12:38:54.052Z,62.97
2017-05-17T12:39:54.048Z,63.6
2017-05-17T12:40:54.036Z,63.19
2017-05-17T12:41:54.045Z,63.54
2017-05-17T12:42:53.730Z,63.67
2017-05-17T12:43:53.728Z,63.89
2017-05-17T12:44:54.024Z,63.99
2017-05-17T12:45:54.035Z,63.45
2017-05-17T12:46:54.034Z,63.48
2017-05-17T12:47:54.031Z,63.22
2017-05-17T12:48:54.032Z,63.29
2017-05-17T12:49:54.022Z,63.22
2017-05-17T12:50:54.025Z,63.03
2017-05-17T12:51:54.020Z,63.13
2017-05-17T12:52:54.005Z,63.13
2017-05-17T12:53:54.002Z,63.13
2017-05-17T12:54:54.003Z,63.03
2017-05-17T12:55:54.002Z,63.16
2017-05-17T12:56:53.999Z,63.19
2017-05-17T12:57:53.997Z,63.12
2017-05-17T12:58:53.993Z,63.12
2017-05-17T12:59:53.992Z,63.22
2017-05-17T13:00:53.990Z,62.55
2017-05-17T13:01:53.989Z,62.84
2017-05-17T13:02:53.986Z,62.65
2017-05-17T13:03:53.983Z,62.81
2017-05-17T13:04:53.682Z,62.74
2017-05-17T13:05:53.980Z,62.84
2017-05-17T13:06:53.976Z,63.48
2017-05-17T13:07:53.975Z,63.73